Time;durP1;ratioP1;P1;durP2;ratioP2;P2;SDS_P1;SDS_P2;PMS_P1;PMS_P2;Temp;Humidity;BMP_temperature;BMP_pressure;BME280_temperature;BME280_humidity;BME280_pressure;Samples;Min_cycle;Max_cycle;Signal;HPM_P1;HPM_P2
2023/06/19 00:02:09;;;;;;;8.05;4.82;;;24.70;72.70;;;;;;5037083;28;20075;-81
2023/06/19 00:04:34;;;;;;;7.28;5.22;;;24.60;72.80;;;;;;5037140;28;20040;-81
2023/06/19 00:07:01;;;;;;;10.43;5.10;;;24.60;73.10;;;;;;5036623;28;20086;-81
2023/06/19 00:09:26;;;;;;;9.98;4.70;;;24.50;73.50;;;;;;5054917;28;20032;-81
2023/06/19 00:11:52;;;;;;;6.55;4.40;;;24.50;73.80;;;;;;5036543;28;20033;-81
2023/06/19 00:14:18;;;;;;;6.40;4.90;;;24.40;74.20;;;;;;5054687;28;20032;-81
2023/06/19 00:16:44;;;;;;;8.07;4.65;;;24.30;74.50;;;;;;5053786;28;20028;-81
2023/06/19 00:19:11;;;;;;;7.28;4.75;;;24.30;74.50;;;;;;5044731;28;20085;-82
2023/06/19 00:21:38;;;;;;;6.75;4.55;;;24.30;74.90;;;;;;5053449;28;20021;-81
2023/06/19 00:24:04;;;;;;;6.05;4.57;;;24.30;74.90;;;;;;5054299;28;20091;-82
2023/06/19 00:26:30;;;;;;;7.30;4.95;;;24.20;75.40;;;;;;5054485;28;20029;-82
2023/06/19 00:28:55;;;;;;;7.30;5.10;;;24.20;75.80;;;;;;5019602;28;20087;-80
2023/06/19 00:31:21;;;;;;;6.25;5.43;;;24.10;76.10;;;;;;5036141;28;20383;-80
2023/06/19 00:33:50;;;;;;;8.57;5.22;;;24.00;76.40;;;;;;5035880;28;20047;-81
2023/06/19 00:36:20;;;;;;;10.73;5.30;;;24.00;76.60;;;;;;5036245;28;20029;-80
2023/06/19 00:38:46;;;;;;;6.43;4.70;;;23.90;76.20;;;;;;5035703;28;20454;-81
2023/06/19 00:41:12;;;;;;;10.55;4.70;;;23.90;75.50;;;;;;5036389;28;20051;-80
2023/06/19 00:43:38;;;;;;;8.50;4.32;;;23.90;75.10;;;;;;5036379;28;20520;-80
2023/06/19 00:46:04;;;;;;;8.18;3.90;;;23.90;75.20;;;;;;5035867;28;20064;-80
2023/06/19 00:48:31;;;;;;;8.20;3.90;;;23.90;75.00;;;;;;5036222;28;20025;-79
2023/06/19 00:50:57;;;;;;;6.15;3.45;;;23.90;75.00;;;;;;5035654;28;20458;-80
2023/06/19 00:53:23;;;;;;;6.97;3.40;;;23.80;75.50;;;;;;5036214;28;20028;-80
2023/06/19 00:55:53;;;;;;;5.18;3.17;;;23.80;76.10;;;;;;5035522;28;20029;-81
2023/06/19 00:58:20;;;;;;;14.20;3.00;;;23.70;76.70;;;;;;5053455;28;20076;-80
2023/06/19 01:00:46;;;;;;;4.10;3.28;;;23.70;77.40;;;;;;5047701;28;20112;-81
2023/06/19 01:03:11;;;;;;;6.72;3.22;;;23.60;78.10;;;;;;5035461;28;20175;-80
2023/06/19 01:05:37;;;;;;;7.47;3.40;;;23.50;78.50;;;;;;5035797;28;20064;-80
2023/06/19 01:08:25;;;;;;;7.07;3.10;;;23.40;79.00;;;;;;5035098;28;20385;-80
2023/06/19 01:10:55;;;;;;;5.88;3.08;;;23.40;79.80;;;;;;5053038;28;20063;-80
2023/06/19 01:13:45;;;;;;;3.03;2.63;;;23.30;80.10;;;;;;5035882;28;20028;-81
2023/06/19 01:16:12;;;;;;;5.30;2.60;;;23.30;80.80;;;;;;5035469;28;20070;-80
2023/06/19 01:18:38;;;;;;;6.45;2.42;;;23.20;81.30;;;;;;5038912;28;20029;-80
2023/06/19 01:21:15;;;;;;;5.30;2.40;;;23.20;81.90;;;;;;5045173;28;20039;-81
2023/06/19 01:23:41;;;;;;;7.03;2.88;;;23.10;82.60;;;;;;5039169;28;20048;-79
2023/06/19 01:26:08;;;;;;;4.18;2.03;;;23.10;83.00;;;;;;5055958;28;20029;-80
2023/06/19 01:28:37;;;;;;;2.17;1.80;;;23.10;83.70;;;;;;5038804;28;20170;-80
2023/06/19 01:31:08;;;;;;;2.63;1.90;;;23.00;84.60;;;;;;5038115;28;20028;-80
2023/06/19 01:33:37;;;;;;;2.08;1.63;;;23.00;86.00;;;;;;5038573;28;20029;-79
2023/06/19 01:36:04;;;;;;;4.03;1.50;;;22.90;87.10;;;;;;5055888;28;20041;-80
2023/06/19 01:38:31;;;;;;;5.45;1.60;;;22.80;88.40;;;;;;5041034;28;20052;-80
2023/06/19 01:40:58;;;;;;;2.85;1.60;;;22.80;89.70;;;;;;5054764;28;20036;-79
2023/06/19 01:43:25;;;;;;;2.97;1.70;;;22.60;91.00;;;;;;5055349;28;20025;-80
2023/06/19 01:45:52;;;;;;;4.30;1.75;;;22.60;92.20;;;;;;5059946;28;20040;-80
2023/06/19 01:48:17;;;;;;;2.30;1.77;;;22.50;93.00;;;;;;5060113;28;20025;-80
2023/06/19 01:50:48;;;;;;;6.50;1.92;;;22.50;93.90;;;;;;5060320;28;20096;-80
2023/06/19 01:53:14;;;;;;;4.55;1.92;;;22.40;94.60;;;;;;5060717;28;20116;-80
2023/06/19 01:55:40;;;;;;;4.85;1.80;;;22.30;96.00;;;;;;5041985;28;20033;-80
2023/06/19 01:58:05;;;;;;;4.25;2.22;;;22.10;96.70;;;;;;5059315;28;20052;-80
2023/06/19 02:00:35;;;;;;;4.13;2.08;;;22.00;97.60;;;;;;5042095;28;20032;-80
2023/06/19 02:03:01;;;;;;;4.32;2.10;;;21.90;98.60;;;;;;5041565;28;20056;-80
2023/06/19 02:05:26;;;;;;;2.35;2.00;;;21.80;99.50;;;;;;5041297;28;20481;-81
2023/06/19 02:07:52;;;;;;;2.88;1.85;;;21.80;99.90;;;;;;5058999;28;20032;-80
2023/06/19 02:10:18;;;;;;;3.13;2.00;;;21.70;99.90;;;;;;5059850;28;20040;-79
2023/06/19 02:12:43;;;;;;;2.65;1.85;;;21.70;99.90;;;;;;5041662;28;20036;-80
2023/06/19 02:15:09;;;;;;;3.25;2.00;;;21.70;99.90;;;;;;5049630;28;20075;-81
2023/06/19 02:17:35;;;;;;;2.75;2.00;;;21.60;99.90;;;;;;5059466;28;20021;-80
2023/06/19 02:20:00;;;;;;;3.42;2.15;;;21.60;99.90;;;;;;5059445;28;20032;-81
2023/06/19 02:22:26;;;;;;;3.58;1.88;;;21.60;99.90;;;;;;5042951;28;20031;-80
2023/06/19 02:24:51;;;;;;;2.35;1.83;;;21.70;99.90;;;;;;5044554;28;20374;-80
2023/06/19 02:27:17;;;;;;;1.58;1.42;;;21.60;99.90;;;;;;5050347;28;20056;-80
2023/06/19 02:29:43;;;;;;;4.15;1.83;;;21.70;99.90;;;;;;5045353;28;20029;-80
2023/06/19 02:32:08;;;;;;;2.45;1.98;;;21.60;99.90;;;;;;5058832;28;20100;-80
2023/06/19 02:34:34;;;;;;;2.13;1.70;;;21.60;99.90;;;;;;5043844;28;20064;-80
2023/06/19 02:36:59;;;;;;;2.05;1.70;;;21.60;99.90;;;;;;5058522;28;20021;-80
2023/06/19 02:39:25;;;;;;;2.33;1.63;;;21.60;99.90;;;;;;5059314;28;20033;-82
2023/06/19 02:41:51;;;;;;;2.30;1.55;;;21.60;99.90;;;;;;5044711;28;20074;-81
2023/06/19 02:44:16;;;;;;;2.75;1.67;;;21.60;99.90;;;;;;5058641;28;20458;-82
2023/06/19 02:46:42;;;;;;;2.50;1.88;;;21.60;99.90;;;;;;5054351;28;20035;-82
2023/06/19 02:49:07;;;;;;;2.58;1.70;;;21.60;99.90;;;;;;5041277;28;20024;-82
2023/06/19 02:51:33;;;;;;;2.55;1.80;;;21.60;99.90;;;;;;5059037;28;20025;-81
2023/06/19 02:53:58;;;;;;;2.80;1.70;;;21.50;99.90;;;;;;5058613;28;20023;-81
2023/06/19 02:56:26;;;;;;;2.90;1.77;;;21.60;99.90;;;;;;5040961;28;20037;-82
2023/06/19 02:58:52;;;;;;;3.83;1.63;;;21.60;99.90;;;;;;5040528;28;20081;-81
2023/06/19 03:01:17;;;;;;;2.58;2.00;;;21.60;99.90;;;;;;5039749;28;20029;-81
2023/06/19 03:03:43;;;;;;;2.22;1.90;;;21.60;99.90;;;;;;5038395;28;20029;-81
2023/06/19 03:06:08;;;;;;;2.83;2.08;;;21.60;99.90;;;;;;5038367;28;20035;-81
2023/06/19 03:08:35;;;;;;;2.78;1.90;;;21.50;99.90;;;;;;5055937;28;20029;-80
2023/06/19 03:11:00;;;;;;;3.80;1.88;;;21.50;99.90;;;;;;5054568;28;20385;-81
2023/06/19 03:13:26;;;;;;;2.92;1.95;;;21.50;99.90;;;;;;5055205;28;20124;-81
2023/06/19 03:15:52;;;;;;;3.08;2.20;;;21.50;99.90;;;;;;5054809;28;20051;-81
2023/06/19 03:18:17;;;;;;;3.15;2.40;;;21.50;99.90;;;;;;5056370;28;20032;-81
2023/06/19 03:20:43;;;;;;;4.28;2.15;;;21.50;99.90;;;;;;5055286;28;20466;-81
2023/06/19 03:23:08;;;;;;;3.65;2.00;;;21.50;99.90;;;;;;5046807;28;20056;-81
2023/06/19 03:25:37;;;;;;;3.67;2.30;;;21.40;99.90;;;;;;5055981;28;20040;-81
2023/06/19 03:28:03;;;;;;;4.55;2.53;;;21.40;99.90;;;;;;5037871;28;20078;-81
2023/06/19 03:30:29;;;;;;;3.67;2.50;;;21.40;99.90;;;;;;5038031;28;20111;-81
2023/06/19 03:32:55;;;;;;;3.50;2.53;;;21.40;99.90;;;;;;5037699;28;20029;-81
2023/06/19 03:35:21;;;;;;;3.60;2.50;;;21.30;99.90;;;;;;5055537;28;20051;-80
2023/06/19 03:37:46;;;;;;;4.13;2.67;;;21.20;99.90;;;;;;5055500;28;20461;-81
2023/06/19 03:40:13;;;;;;;6.97;2.60;;;21.30;99.90;;;;;;5054519;28;20033;-81
2023/06/19 03:42:40;;;;;;;3.13;2.33;;;21.20;99.90;;;;;;5037792;28;20416;-82
2023/06/19 03:45:06;;;;;;;5.43;2.50;;;21.30;99.90;;;;;;5037571;28;20060;-82
2023/06/19 03:47:31;;;;;;;2.95;2.30;;;21.30;99.90;;;;;;5055347;28;20060;-84
2023/06/19 03:49:57;;;;;;;3.55;2.20;;;21.20;99.90;;;;;;5037492;28;20458;-82
2023/06/19 03:52:23;;;;;;;2.80;2.45;;;21.30;99.90;;;;;;5037965;28;20025;-83
2023/06/19 03:54:49;;;;;;;4.38;2.55;;;21.20;99.90;;;;;;5055028;28;20036;-83
2023/06/19 03:57:15;;;;;;;3.17;2.20;;;21.20;99.90;;;;;;5055094;28;20071;-83
2023/06/19 03:59:40;;;;;;;3.88;1.90;;;21.20;99.90;;;;;;5055555;28;20022;-82
2023/06/19 04:02:06;;;;;;;3.55;2.40;;;21.30;99.90;;;;;;5053735;28;20025;-82
2023/06/19 04:04:31;;;;;;;3.65;1.88;;;21.30;99.90;;;;;;5055065;28;20074;-82
2023/06/19 04:06:58;;;;;;;2.33;1.92;;;21.30;99.90;;;;;;5054031;28;20159;-82
2023/06/19 04:09:24;;;;;;;2.65;2.08;;;21.40;99.90;;;;;;5055308;28;20029;-81
2023/06/19 04:11:50;;;;;;;2.25;1.95;;;21.40;99.90;;;;;;5037017;28;20029;-81
2023/06/19 04:14:16;;;;;;;2.83;2.10;;;21.40;99.90;;;;;;5037180;28;20477;-82
2023/06/19 04:16:41;;;;;;;2.58;1.77;;;21.40;99.90;;;;;;5053743;28;20033;-81
2023/06/19 04:19:07;;;;;;;2.30;1.98;;;21.40;99.90;;;;;;5045878;28;20033;-81
2023/06/19 04:21:32;;;;;;;3.65;2.55;;;21.40;99.90;;;;;;5037186;28;20029;-81
2023/06/19 04:23:58;;;;;;;2.85;2.33;;;21.40;99.90;;;;;;5054121;28;20536;-81
2023/06/19 04:26:24;;;;;;;3.63;2.42;;;21.50;99.90;;;;;;5037288;28;20037;-81
2023/06/19 04:28:50;;;;;;;6.03;2.80;;;21.40;99.90;;;;;;5036805;28;20476;-81
2023/06/19 04:31:17;;;;;;;3.90;2.47;;;21.40;99.90;;;;;;5054098;28;20037;-81
2023/06/19 04:33:44;;;;;;;3.75;2.58;;;21.30;99.90;;;;;;5036731;28;20025;-82
2023/06/19 04:36:10;;;;;;;3.20;2.60;;;21.30;99.90;;;;;;5036208;28;20032;-82
2023/06/19 04:38:35;;;;;;;3.22;2.47;;;21.30;99.90;;;;;;5036642;28;20036;-81
2023/06/19 04:41:01;;;;;;;4.93;2.85;;;21.30;99.90;;;;;;5036025;28;20498;-81
2023/06/19 04:43:26;;;;;;;4.97;2.90;;;21.30;99.90;;;;;;5054070;28;20064;-79
2023/06/19 04:45:52;;;;;;;2.75;2.45;;;21.30;99.90;;;;;;5052725;28;20036;-81
2023/06/19 04:48:18;;;;;;;3.85;2.70;;;21.30;99.90;;;;;;5053028;28;20031;-81
2023/06/19 04:50:43;;;;;;;3.17;2.60;;;21.40;99.90;;;;;;5052975;28;20025;-82
2023/06/19 04:53:09;;;;;;;3.22;2.67;;;21.40;99.90;;;;;;5052440;28;20021;-81
2023/06/19 04:55:34;;;;;;;2.85;2.30;;;21.40;99.90;;;;;;5053058;28;20474;-82
2023/06/19 04:58:00;;;;;;;3.17;2.45;;;21.40;99.90;;;;;;5037424;28;20056;-82
2023/06/19 05:00:26;;;;;;;3.78;2.70;;;21.40;99.90;;;;;;5036509;28;20047;-82
2023/06/19 05:02:52;;;;;;;4.72;2.80;;;21.40;99.90;;;;;;5036098;28;20093;-82
2023/06/19 05:05:18;;;;;;;3.97;2.67;;;21.40;99.90;;;;;;5035789;28;20029;-82
2023/06/19 05:07:45;;;;;;;5.82;4.95;;;21.40;99.90;;;;;;5048279;28;20025;-82
2023/06/19 05:10:10;;;;;;;7.03;4.88;;;21.40;99.90;;;;;;5036006;28;20574;-82
2023/06/19 05:12:36;;;;;;;4.55;3.38;;;21.40;99.90;;;;;;5053742;28;20032;-82
2023/06/19 05:15:02;;;;;;;4.60;2.92;;;21.40;99.90;;;;;;5041960;28;20401;-81
2023/06/19 05:17:28;;;;;;;4.25;3.28;;;21.40;99.90;;;;;;5053842;28;20540;-81
2023/06/19 05:19:53;;;;;;;4.03;2.80;;;21.40;99.90;;;;;;5052843;28;20061;-81
2023/06/19 05:22:21;;;;;;;4.05;2.80;;;21.40;99.90;;;;;;5052686;28;20063;-81
2023/06/19 05:24:47;;;;;;;4.38;3.25;;;21.40;99.90;;;;;;5052789;28;20032;-81
2023/06/19 05:27:12;;;;;;;6.00;2.95;;;21.50;99.90;;;;;;5052132;28;20021;-81
2023/06/19 05:29:38;;;;;;;4.03;2.97;;;21.50;99.90;;;;;;5053592;28;20027;-80
2023/06/19 05:32:04;;;;;;;4.45;2.90;;;21.50;99.90;;;;;;5052244;28;20018;-81
2023/06/19 05:34:30;;;;;;;2.95;2.60;;;21.50;99.90;;;;;;5050572;28;20474;-81
2023/06/19 05:36:55;;;;;;;4.63;2.65;;;21.50;99.90;;;;;;5035994;28;20041;-81
2023/06/19 05:39:21;;;;;;;4.63;2.67;;;21.50;99.90;;;;;;5036566;28;20033;-81
2023/06/19 05:41:46;;;;;;;4.25;2.88;;;21.50;99.90;;;;;;5036349;28;20029;-81
2023/06/19 05:44:16;;;;;;;5.82;2.95;;;21.60;99.90;;;;;;5035744;28;20040;-82
2023/06/19 05:46:42;;;;;;;6.25;2.97;;;21.60;99.90;;;;;;5036092;28;20473;-81
2023/06/19 05:49:08;;;;;;;5.15;3.17;;;21.50;99.90;;;;;;5042766;28;20026;-81
2023/06/19 05:51:34;;;;;;;3.50;2.70;;;21.60;99.90;;;;;;5041202;28;20028;-80
2023/06/19 05:54:03;;;;;;;7.18;3.20;;;21.60;99.90;;;;;;5043994;28;20029;-81
2023/06/19 05:56:36;;;;;;;6.70;3.40;;;21.60;99.90;;;;;;5053069;28;20033;-81
2023/06/19 05:59:02;;;;;;;4.38;3.17;;;21.60;99.90;;;;;;5052267;28;20055;-81
2023/06/19 06:01:28;;;;;;;4.72;3.20;;;21.60;99.90;;;;;;5035324;28;20473;-81
2023/06/19 06:03:55;;;;;;;3.55;2.90;;;21.60;99.90;;;;;;5035003;28;20466;-81
2023/06/19 06:06:20;;;;;;;4.38;3.47;;;21.70;99.90;;;;;;5052796;28;20470;-81
2023/06/19 06:08:46;;;;;;;4.15;3.47;;;21.70;99.90;;;;;;5035476;28;20048;-80
2023/06/19 06:11:11;;;;;;;4.20;3.38;;;21.70;99.90;;;;;;5035556;28;20086;-81
2023/06/19 06:13:37;;;;;;;3.50;3.20;;;21.80;99.90;;;;;;5053405;28;20029;-82
2023/06/19 06:16:03;;;;;;;4.65;3.00;;;21.80;99.90;;;;;;5050074;28;20116;-81
2023/06/19 06:18:28;;;;;;;3.75;3.03;;;21.80;99.90;;;;;;5053478;28;20056;-81
2023/06/19 06:20:55;;;;;;;3.35;2.60;;;21.90;99.90;;;;;;5046792;28;20072;-81
2023/06/19 06:23:21;;;;;;;3.70;2.80;;;21.90;99.90;;;;;;5044715;28;20029;-83
2023/06/19 06:25:46;;;;;;;3.00;2.67;;;22.00;99.90;;;;;;5053580;28;20024;-82
2023/06/19 06:28:12;;;;;;;5.32;3.00;;;22.00;99.90;;;;;;5035152;28;20529;-82
2023/06/19 06:30:38;;;;;;;3.92;2.50;;;22.10;99.90;;;;;;5038341;28;20047;-80
2023/06/19 06:33:04;;;;;;;5.07;2.70;;;22.20;99.90;;;;;;5038988;28;20028;-80
2023/06/19 06:35:30;;;;;;;4.13;3.10;;;22.10;99.90;;;;;;5039246;28;20029;-80
2023/06/19 06:37:55;;;;;;;4.28;2.30;;;22.20;99.90;;;;;;5039201;28;20128;-80
2023/06/19 06:40:21;;;;;;;6.10;2.60;;;22.20;99.90;;;;;;5039734;28;20525;-82
2023/06/19 06:42:47;;;;;;;4.65;2.33;;;22.30;99.90;;;;;;5040262;28;20028;-83
2023/06/19 06:45:13;;;;;;;3.33;2.33;;;22.30;99.90;;;;;;5047369;28;20025;-83
2023/06/19 06:47:39;;;;;;;4.88;2.35;;;22.40;99.90;;;;;;5056202;28;20462;-83
2023/06/19 06:50:06;;;;;;;5.25;2.65;;;22.40;99.90;;;;;;5056314;28;20466;-82
2023/06/19 06:52:32;;;;;;;3.53;2.50;;;22.50;99.90;;;;;;5056859;28;20040;-80
2023/06/19 06:54:58;;;;;;;2.42;2.08;;;22.60;99.90;;;;;;5045944;28;20033;-80
2023/06/19 06:57:23;;;;;;;2.38;2.13;;;22.60;99.90;;;;;;5036718;28;20398;-80
2023/06/19 06:59:49;;;;;;;2.60;2.28;;;22.70;99.90;;;;;;5035552;28;20123;-80
2023/06/19 07:02:15;;;;;;;5.13;2.42;;;22.80;99.90;;;;;;5020595;28;20037;-80
2023/06/19 07:04:40;;;;;;;4.15;2.17;;;22.80;99.90;;;;;;5025521;28;20126;-80
2023/06/19 07:07:06;;;;;;;2.35;1.88;;;22.90;99.90;;;;;;5037796;28;20032;-80
2023/06/19 07:09:33;;;;;;;3.08;2.30;;;23.00;99.90;;;;;;5048809;28;20037;-78
2023/06/19 07:11:58;;;;;;;2.63;1.95;;;23.10;99.90;;;;;;5053546;28;20079;-79
2023/06/19 07:14:24;;;;;;;5.78;2.13;;;23.20;99.90;;;;;;5055066;28;20032;-78
2023/06/19 07:16:50;;;;;;;2.30;2.03;;;23.20;99.90;;;;;;5055212;28;20041;-82
2023/06/19 07:19:16;;;;;;;3.17;1.90;;;23.20;99.90;;;;;;5037191;28;20017;-79
2023/06/19 07:21:42;;;;;;;3.20;2.17;;;23.30;99.90;;;;;;5050849;28;20029;-80
2023/06/19 07:24:08;;;;;;;5.60;2.55;;;23.30;99.90;;;;;;5055526;28;20025;-80
2023/06/19 07:26:34;;;;;;;3.15;2.20;;;23.30;99.90;;;;;;5038056;28;20393;-79
2023/06/19 07:28:59;;;;;;;3.67;2.13;;;23.40;99.90;;;;;;5037819;28;20481;-80
2023/06/19 07:31:25;;;;;;;3.35;2.42;;;23.40;99.90;;;;;;5038203;28;20040;-80
2023/06/19 07:33:50;;;;;;;2.75;1.90;;;23.50;99.90;;;;;;5051545;28;20025;-80
2023/06/19 07:36:16;;;;;;;4.45;2.20;;;23.50;99.90;;;;;;5055253;28;20052;-80
2023/06/19 07:38:43;;;;;;;2.80;2.17;;;23.60;99.90;;;;;;5055225;28;20025;-80
2023/06/19 07:41:09;;;;;;;3.10;2.38;;;23.60;99.90;;;;;;5033363;28;20131;-80
2023/06/19 07:43:35;;;;;;;2.80;2.35;;;23.60;99.90;;;;;;5037890;28;20029;-79
2023/06/19 07:46:01;;;;;;;4.10;2.65;;;23.70;99.90;;;;;;5042622;28;20026;-80
2023/06/19 07:48:27;;;;;;;2.55;2.05;;;23.80;99.90;;;;;;5052285;28;20113;-80
2023/06/19 07:50:53;;;;;;;5.63;3.65;;;23.80;99.90;;;;;;5024411;28;20021;-79
2023/06/19 07:53:19;;;;;;;3.67;2.40;;;23.80;99.90;;;;;;5024422;28;20029;-80
2023/06/19 07:55:45;;;;;;;3.05;2.58;;;23.80;99.90;;;;;;5029790;28;20028;-80
2023/06/19 07:58:11;;;;;;;4.15;2.58;;;23.90;99.90;;;;;;5038705;28;20052;-79
2023/06/19 08:00:36;;;;;;;2.80;2.50;;;23.80;99.90;;;;;;5033204;28;20111;-80
2023/06/19 08:03:02;;;;;;;2.58;2.25;;;23.90;99.90;;;;;;5031951;28;20029;-80
2023/06/19 08:05:27;;;;;;;4.47;2.55;;;24.00;99.90;;;;;;5045660;28;20033;-78
2023/06/19 08:07:53;;;;;;;4.45;2.53;;;24.20;99.90;;;;;;5022019;28;20466;-79
2023/06/19 08:10:19;;;;;;;4.60;2.42;;;24.30;99.90;;;;;;5031430;28;20481;-80
2023/06/19 08:12:44;;;;;;;3.90;2.88;;;24.50;99.90;;;;;;5048517;28;20025;-78
2023/06/19 08:15:13;;;;;;;5.07;2.85;;;24.50;99.90;;;;;;5024037;28;20033;-79
2023/06/19 08:17:38;;;;;;;4.40;2.92;;;24.30;99.90;;;;;;5023841;28;20033;-84
2023/06/19 08:20:05;;;;;;;5.70;3.25;;;24.30;99.90;;;;;;5033343;28;20021;-83
2023/06/19 08:22:31;;;;;;;3.83;2.65;;;24.20;99.90;;;;;;5031169;28;20084;-83
2023/06/19 08:24:56;;;;;;;2.80;2.60;;;24.20;99.90;;;;;;5054422;28;20021;-84
2023/06/19 08:27:22;;;;;;;3.10;2.40;;;24.20;99.90;;;;;;5037048;28;20052;-83
2023/06/19 08:29:47;;;;;;;3.72;2.70;;;24.20;99.90;;;;;;5016998;28;20068;-79
2023/06/19 08:32:13;;;;;;;3.88;2.80;;;24.30;99.90;;;;;;5016503;28;20025;-79
2023/06/19 08:34:38;;;;;;;3.78;2.78;;;24.30;99.90;;;;;;5034512;28;20021;-79
2023/06/19 08:37:05;;;;;;;5.05;2.88;;;24.20;99.90;;;;;;5026558;28;20033;-79
2023/06/19 08:39:31;;;;;;;4.38;2.60;;;24.10;99.90;;;;;;5047352;28;20033;-79
2023/06/19 08:41:57;;;;;;;6.50;3.72;;;24.00;99.90;;;;;;5052961;28;20120;-79
2023/06/19 08:44:22;;;;;;;4.68;3.25;;;24.00;99.90;;;;;;5053924;28;20028;-80
2023/06/19 08:46:48;;;;;;;4.78;3.72;;;24.10;99.90;;;;;;5048307;28;20509;-79
2023/06/19 08:49:14;;;;;;;4.82;2.97;;;24.00;99.90;;;;;;5023694;28;20033;-79
2023/06/19 08:51:40;;;;;;;3.90;2.47;;;24.10;99.90;;;;;;5034052;28;20025;-80
2023/06/19 08:54:08;;;;;;;4.60;2.92;;;24.00;99.90;;;;;;5044207;28;20028;-79
2023/06/19 08:56:34;;;;;;;4.32;2.88;;;24.00;99.90;;;;;;5037850;28;20114;-81
2023/06/19 08:59:18;;;;;;;4.72;3.22;;;24.00;99.90;;;;;;5049685;28;20045;-84
2023/06/19 09:01:51;;;;;;;4.43;3.03;;;24.00;99.90;;;;;;5018723;28;20048;-83
2023/06/19 09:04:18;;;;;;;4.38;2.95;;;24.20;99.90;;;;;;5037576;28;20017;-82
2023/06/19 09:06:58;;;;;;;4.13;3.08;;;24.20;99.90;;;;;;5039453;28;20127;-81
2023/06/19 09:09:26;;;;;;;4.57;3.42;;;24.10;99.90;;;;;;5030894;28;20512;-83
2023/06/19 09:11:57;;;;;;;4.70;3.38;;;24.10;99.90;;;;;;5042614;28;20493;-78
2023/06/19 09:14:51;;;;;;;5.70;3.40;;;24.00;99.90;;;;;;5019724;28;20032;-81
2023/06/19 09:17:21;;;;;;;6.22;3.47;;;23.90;99.90;;;;;;5016497;28;20191;-80
2023/06/19 09:19:51;;;;;;;6.18;3.63;;;23.90;99.90;;;;;;5036045;28;20448;-78
2023/06/19 09:22:18;;;;;;;4.03;3.35;;;23.90;99.90;;;;;;5034913;28;20190;-82
2023/06/19 09:24:44;;;;;;;5.55;3.75;;;23.90;99.90;;;;;;5046940;28;20021;-90
2023/06/19 09:27:17;;;;;;;4.93;3.38;;;24.00;99.90;;;;;;5027265;28;20075;-87
2023/06/19 09:29:45;;;;;;;3.33;2.88;;;24.10;99.90;;;;;;5036289;28;20021;-87
2023/06/19 09:32:19;;;;;;;5.15;3.38;;;24.10;99.90;;;;;;5035836;28;20025;-82
2023/06/19 09:34:45;;;;;;;4.55;3.40;;;24.20;99.90;;;;;;5036227;28;20104;-83
2023/06/19 09:37:11;;;;;;;4.75;2.88;;;24.30;99.90;;;;;;5053559;28;20430;-83
2023/06/19 09:39:38;;;;;;;4.25;2.80;;;24.40;99.90;;;;;;5031222;28;20061;-83
2023/06/19 09:42:07;;;;;;;4.03;2.92;;;24.50;99.90;;;;;;5034182;28;20032;-84
2023/06/19 09:44:44;;;;;;;4.28;3.20;;;24.60;99.90;;;;;;5053649;28;20021;-81
2023/06/19 09:47:22;;;;;;;4.82;3.05;;;24.70;99.90;;;;;;5041883;28;20025;-79
2023/06/19 09:49:57;;;;;;;3.90;3.45;;;24.90;99.90;;;;;;5047875;28;20075;-79
2023/06/19 09:52:23;;;;;;;4.80;3.47;;;25.00;99.90;;;;;;5035256;28;20036;-80
2023/06/19 09:54:54;;;;;;;4.75;3.30;;;25.00;99.90;;;;;;5035273;28;20036;-80
2023/06/19 09:57:20;;;;;;;4.45;2.90;;;25.10;99.90;;;;;;5051493;28;20055;-79
2023/06/19 09:59:49;;;;;;;4.55;3.15;;;25.20;99.90;;;;;;5036591;28;20466;-79
2023/06/19 10:02:17;;;;;;;5.15;3.17;;;25.20;99.90;;;;;;5026694;28;20029;-81
2023/06/19 10:04:49;;;;;;;4.88;2.88;;;25.30;99.90;;;;;;5053365;28;20029;-81
2023/06/19 10:07:23;;;;;;;4.50;2.53;;;25.40;99.90;;;;;;5030776;28;20521;-80
2023/06/19 10:10:06;;;;;;;3.63;2.85;;;25.50;99.90;;;;;;5052864;28;20025;-80
2023/06/19 10:12:38;;;;;;;5.13;2.90;;;25.60;99.60;;;;;;5037006;28;20036;-81
2023/06/19 10:15:20;;;;;;;5.57;3.20;;;25.60;99.50;;;;;;5021219;28;20029;-80
2023/06/19 10:17:49;;;;;;;5.10;3.35;;;25.60;99.70;;;;;;5056416;28;20028;-80
2023/06/19 10:20:33;;;;;;;5.30;3.25;;;25.50;99.90;;;;;;5046995;28;20044;-78
2023/06/19 10:23:18;;;;;;;3.25;2.90;;;25.40;99.90;;;;;;5026790;28;20079;-80
2023/06/19 10:25:45;;;;;;;4.35;3.03;;;25.30;99.90;;;;;;5038120;28;20029;-82
2023/06/19 10:28:24;;;;;;;5.00;3.45;;;25.30;99.90;;;;;;5038125;28;20047;-82
2023/06/19 10:31:01;;;;;;;3.92;3.28;;;25.20;99.90;;;;;;5052376;28;20474;-81
2023/06/19 10:33:36;;;;;;;5.10;3.53;;;25.20;99.90;;;;;;5055897;28;20021;-82
2023/06/19 10:36:17;;;;;;;4.13;3.40;;;25.20;99.90;;;;;;5047528;28;20041;-79
2023/06/19 10:38:49;;;;;;;4.95;3.30;;;25.30;99.90;;;;;;5046662;28;20033;-80
2023/06/19 10:41:19;;;;;;;3.20;2.90;;;25.40;99.90;;;;;;5030079;28;20039;-80
2023/06/19 10:43:56;;;;;;;4.35;3.60;;;25.40;99.90;;;;;;5055846;28;20377;-81
2023/06/19 10:46:23;;;;;;;4.47;2.88;;;25.50;99.70;;;;;;5049025;28;20044;-81
2023/06/19 10:48:50;;;;;;;5.35;3.33;;;25.50;99.60;;;;;;5055287;28;20025;-82
2023/06/19 10:51:19;;;;;;;4.05;3.42;;;25.60;99.50;;;;;;5053715;28;20064;-82
2023/06/19 10:53:45;;;;;;;3.38;2.78;;;25.70;99.90;;;;;;5042641;28;20093;-84
2023/06/19 10:56:11;;;;;;;5.43;3.67;;;25.60;99.50;;;;;;5037123;28;20489;-83
2023/06/19 10:58:36;;;;;;;4.53;3.20;;;25.70;99.70;;;;;;5035623;28;20049;-78
2023/06/19 11:01:02;;;;;;;4.63;3.40;;;25.70;99.40;;;;;;5052081;28;20385;-77
2023/06/19 11:03:28;;;;;;;4.63;3.38;;;25.70;99.30;;;;;;5049279;28;20036;-81
2023/06/19 11:05:54;;;;;;;9.13;6.22;;;25.80;99.20;;;;;;5053198;28;20044;-81
2023/06/19 11:08:21;;;;;;;6.57;5.07;;;25.90;99.20;;;;;;5050980;28;20021;-77
2023/06/19 11:10:47;;;;;;;4.75;3.33;;;25.90;99.30;;;;;;5049813;28;20025;-77
2023/06/19 11:13:15;;;;;;;4.18;3.45;;;26.00;98.70;;;;;;5054052;28;20032;-78
2023/06/19 11:15:41;;;;;;;3.75;3.13;;;26.10;98.20;;;;;;5038671;28;20160;-76
2023/06/19 11:18:07;;;;;;;4.63;3.13;;;26.10;97.70;;;;;;5054289;28;20117;-79
2023/06/19 11:20:52;;;;;;;6.38;4.22;;;26.20;97.70;;;;;;5052811;28;20029;-80
2023/06/19 11:23:29;;;;;;;5.07;3.30;;;26.40;97.70;;;;;;5043306;28;20025;-79
2023/06/19 11:26:03;;;;;;;4.07;3.20;;;26.50;97.50;;;;;;5036884;28;20040;-79
2023/06/19 11:28:29;;;;;;;5.68;3.80;;;26.60;97.10;;;;;;5038576;28;20102;-81
2023/06/19 11:31:03;;;;;;;5.18;3.42;;;26.80;96.60;;;;;;5031886;28;20025;-80
2023/06/19 11:33:30;;;;;;;11.77;7.43;;;26.90;96.30;;;;;;5055183;28;20028;-80
2023/06/19 11:35:59;;;;;;;4.35;3.03;;;27.00;96.20;;;;;;5054606;28;20473;-78
2023/06/19 11:38:26;;;;;;;3.60;3.25;;;27.00;95.70;;;;;;5053651;28;20041;-81
2023/06/19 11:40:56;;;;;;;4.03;3.10;;;27.10;95.50;;;;;;5040453;28;20340;-81
2023/06/19 11:43:25;;;;;;;4.75;3.05;;;27.00;95.40;;;;;;5046334;28;20055;-81
2023/06/19 11:45:52;;;;;;;3.95;2.90;;;27.00;95.40;;;;;;5048281;28;20025;-81
2023/06/19 11:48:26;;;;;;;5.43;3.40;;;27.10;95.40;;;;;;5037799;28;20068;-80
2023/06/19 11:50:52;;;;;;;5.28;3.50;;;27.10;95.40;;;;;;5054050;28;20106;-80
2023/06/19 11:53:20;;;;;;;3.80;3.40;;;27.10;95.40;;;;;;5043153;28;20021;-79
2023/06/19 11:55:46;;;;;;;3.70;3.10;;;27.10;95.30;;;;;;5036762;28;20029;-80
2023/06/19 11:58:11;;;;;;;6.20;3.10;;;27.10;95.30;;;;;;5054017;28;20049;-80
2023/06/19 12:00:37;;;;;;;3.63;3.05;;;27.20;95.50;;;;;;5036417;28;20466;-80
2023/06/19 12:03:04;;;;;;;5.25;3.05;;;27.20;95.10;;;;;;5053176;28;20096;-80
2023/06/19 12:05:29;;;;;;;4.68;3.20;;;27.30;95.20;;;;;;5045315;28;20032;-80
2023/06/19 12:07:55;;;;;;;4.85;2.78;;;27.30;94.80;;;;;;5054401;28;20036;-80
2023/06/19 12:10:20;;;;;;;3.40;3.08;;;27.40;94.40;;;;;;5051363;28;20557;-80
2023/06/19 12:12:46;;;;;;;4.10;3.20;;;27.50;94.60;;;;;;5054114;28;20382;-81
2023/06/19 12:15:12;;;;;;;4.47;2.78;;;27.60;94.20;;;;;;5053535;28;20120;-80
2023/06/19 12:17:37;;;;;;;4.13;2.88;;;27.70;93.90;;;;;;5043489;28;20473;-81
2023/06/19 12:20:07;;;;;;;3.67;2.75;;;27.60;93.80;;;;;;5049214;28;20029;-81
2023/06/19 12:22:34;;;;;;;5.07;2.60;;;27.60;93.30;;;;;;5054206;28;20474;-82
2023/06/19 12:25:00;;;;;;;6.03;4.75;;;27.70;92.80;;;;;;5035985;28;20141;-79
2023/06/19 12:27:26;;;;;;;5.45;3.55;;;27.70;92.20;;;;;;5037925;28;20600;-78
2023/06/19 12:29:51;;;;;;;3.72;2.70;;;27.80;92.30;;;;;;5053780;28;20017;-79
2023/06/19 12:32:17;;;;;;;4.07;2.22;;;27.90;92.40;;;;;;5036046;28;20029;-80
2023/06/19 12:34:46;;;;;;;3.20;2.45;;;28.00;92.10;;;;;;5053873;28;20546;-77
2023/06/19 12:37:17;;;;;;;3.60;2.70;;;28.10;91.90;;;;;;5040950;28;20470;-77
2023/06/19 12:39:43;;;;;;;;;;;28.10;91.60;;;;;;5042477;28;20075;-80
2023/06/19 12:42:09;;;;;;;3.15;2.47;;;28.30;91.40;;;;;;5052969;28;19904;-78
2023/06/19 12:44:34;;;;;;;4.85;2.95;;;28.40;91.40;;;;;;5051230;28;20039;-79
2023/06/19 12:47:00;;;;;;;4.50;2.70;;;28.60;91.20;;;;;;5039172;28;20033;-78
2023/06/19 12:49:26;;;;;;;4.30;2.88;;;28.70;90.90;;;;;;5044608;28;20025;-84